Terminal Aerodrome Forecast
Issued by NWS Louisville, KY

Home | Current Version | Previous Version | Text Only | Print | Product List | Glossary On
Versions: 1 2 3 4 5 6 7 8 9 10 11 12 13 14 15 16 17 18 19 20 21 22 23
306
FTUS43 KLMK 161729
TAFBWG
TAF
KBWG 161729Z 1618/1718 34006KT P6SM SCT021
     FM162300 36006KT P6SM FEW200
     FM171000 09003KT 5SM BR FEW200
     FM171400 11005KT P6SM FEW200=

USA.gov is the U.S. government's official web portal to all federal, state and local government web resources and services.